Aérodrome :
LOGIN :

S'inscrire | Disclaimer

   EN    FR    IT 

 










Légende :    VFR   VFR Marginal   IFR   IFR Intensif   IFR Très Intensif
Visi : 
Plafond : 
>= 8 km
>= 3000ft
5 à 8 km
1000 à 3000 ft
1500m à 5 km
500 à 1000 ft
800 à 1500m
200 à 500 ft
< 800m
< 200 ft
Symboles :   Orages  Brouillard  Fortes neiges  Fortes précipitations  Vent > 20 kt
SIGMETs :   Divers  Orages  Givrage  Turbulence  Onde Orograph.  Cendres Volcan.







- Altitude de l'aérodrome : 466 ft


LHPA - Pápa

DERNIER METAR :
  • 230045Z 16002KT CAVOK 17/15 Q1021 NOSIG RMK BLU

METARs EXPIRÉS :
  • 230015Z 17002KT CAVOK 18/15 Q1021 NOSIG RMK BLU
  • 222345Z 20004KT CAVOK 17/15 Q1021 NOSIG RMK BLU
  • 222315Z 00000KT CAVOK 17/15 Q1021 NOSIG RMK BLU
  • 222245Z 13002KT CAVOK 18/15 Q1021 NOSIG RMK BLU
  • 222215Z 13002KT CAVOK 19/16 Q1021 NOSIG RMK BLU

TAF TAF LHPA
Valide du 23 à 00h jusqu'au 24 à 00h UTC


222315Z 2300/2324 VRB03KT CAVOK
BECMG 2305/2308 34012KT
TEMPO 2309/2315 35011G21KT 9999 FEW040
BECMG 2315/2317 06005KT
Pas de NOTAMs connus pour ce terrain.



MET'MAP, la Météo Aéronautique d'un coup d'oeil ! - Copyright ORBIFLY Décembre 2007 - Disclaimer

ORBIFLY MET'MAP TEAM :

Programmation & Développement : Alexandra Zaïnal
Conception & Développement : Baudouin d'Aumeries
Co-Programmation & Développement : Marc-Olivier Méhu
Soutien technique & logistique : Manuel Goepfert

Contact : metmap@orbifly.com




SOURCES & CREDITS :

   NOAA